Latest Weather Observations for Point Stuart

IDD60801

Issued at 7:51 pm CST Monday 17 December 2018 (issued every 10 minutes, with the page automatically refreshed every 10 minutes)

About weather observations | Map of weather stations | Latest weather observations for NT | Other Formats
Station Details ID: 014254 Name: POINT STUART Lat: -12.24 Lon: 131.88 Height: 1.0 m
Data from the previous 72 hours. | See also: Recent months at Point Stuart
Date/Time
CST
Temp
°C
App
Temp
°C
Dew
Point
°C
Rel
Hum
%
Delta-T
°C
Wind Press
QNH
hPa
Press
MSL
hPa
Rain since
9am
mm
Dir  Spd
km/h
Gust
km/h
Spd
kts
Gust
kts
17/07:30pm 31.2 33.9 26.2 75 3.6 WNW 24 32 13 17 1005.6 - 0.0
17/07:00pm 31.5 35.3 26.5 75 3.6 NW 19 24 10 13 1005.0 - 0.0
17/06:30pm 32.2 36.1 26.0 70 4.4 NW 17 22 9 12 1005.0 - 0.0
17/06:00pm 33.5 36.9 25.2 62 5.9 NW 17 24 9 13 1004.7 1004.7 0.0
17/05:30pm 34.3 37.4 25.7 61 6.1 NW 20 28 11 15 1004.3 - 0.0
17/05:00pm 35.3 38.5 25.8 58 6.8 NNW 20 28 11 15 1004.2 - 0.0
17/04:30pm 35.7 38.3 24.9 53 7.7 NW 20 28 11 15 1003.8 - 0.0
17/04:00pm 35.3 38.4 26.3 59 6.5 NW 22 28 12 15 1004.1 - 0.0
17/03:30pm 34.9 37.9 26.2 60 6.3 NW 22 28 12 15 1004.3 - 0.0
17/03:00pm 35.2 37.9 26.2 59 6.5 NW 24 32 13 17 1004.6 1004.6 0.0
17/02:30pm 35.1 38.3 26.4 60 6.3 NW 22 32 12 17 1005.2 - 0.0
17/02:00pm 35.6 39.1 26.9 60 6.3 NW 22 30 12 16 1005.5 - 0.0
17/01:30pm 34.8 38.2 26.2 61 6.2 NW 20 30 11 16 1005.8 - 0.0
17/01:00pm 34.5 37.5 26.1 61 6.0 NW 22 32 12 17 1006.2 - 0.0
17/12:30pm 35.0 37.0 25.8 59 6.6 NW 26 33 14 18 1006.2 - 0.0
17/12:00pm 34.8 37.7 25.9 60 6.4 NW 22 30 12 16 1006.4 1006.4 0.0
17/11:30am 34.5 36.8 25.6 60 6.4 WNW 24 32 13 17 1006.5 - 0.0
17/11:00am 34.7 36.7 24.6 55 7.1 WNW 22 28 12 15 1006.8 - 0.0
17/10:30am 33.7 37.2 25.4 62 5.9 W 17 24 9 13 1007.1 - 0.0
17/10:00am 32.2 34.9 24.8 65 5.2 W 19 26 10 14 1007.2 - 0.0
17/09:30am 32.2 35.4 25.0 65 5.1 WSW 17 20 9 11 1007.3 - 0.0
17/09:00am 30.4 35.6 25.7 76 3.3 S 9 13 5 7 1007.4 - 0.0
17/08:30am 29.5 36.2 26.5 84 2.1 S 4 11 2 6 1007.5 - 0.0
17/08:00am 28.2 35.2 26.4 90 1.3 S 2 6 1 3 1007.1 - 0.0
17/07:30am 27.3 33.4 26.2 94 0.8 S 6 7 3 4 1006.7 - 0.0
17/07:00am 26.8 32.6 26.1 96 0.5 S 7 9 4 5 1006.7 - 0.0
17/06:30am 26.5 31.4 25.8 96 0.5 S 11 15 6 8 1006.6 - 0.0
17/06:00am 26.7 30.9 26.0 96 0.5 S 15 20 8 11 1006.6 1006.6 0.0
17/05:30am 27.0 31.8 26.3 96 0.5 W 13 17 7 9 1006.1 - 0.0
17/05:00am 26.6 33.4 26.1 97 0.4 W 2 6 1 3 1005.4 - 0.0
17/04:30am 26.9 32.3 26.0 95 0.6 W 9 11 5 6 1005.6 - 0.0
17/04:00am 27.1 31.7 26.0 94 0.8 W 13 15 7 8 1005.9 - 0.0
17/03:30am 27.0 32.3 25.8 93 0.8 W 9 11 5 6 1005.4 - 0.0
17/03:00am 27.3 32.4 26.1 93 0.9 W 11 13 6 7 1005.5 1005.5 0.0
17/02:30am 26.9 32.1 25.7 93 0.8 W 9 11 5 6 1005.3 - 0.0
17/02:00am 27.1 32.4 25.3 90 1.3 W 7 7 4 4 1005.3 - 0.0
17/01:30am 27.7 33.0 25.3 87 1.7 W 7 9 4 5 1005.7 - 0.0
17/01:00am 28.5 32.8 25.5 84 2.1 W 13 17 7 9 1006.0 - 0.0
17/12:30am 29.7 33.1 26.1 81 2.6 W 20 28 11 15 1006.0 - 0.0
17/12:00am 29.7 33.1 25.9 80 2.7 W 19 26 10 14 1006.5 1006.5 0.0
 
Date/Time
CST
Temp
°C
App
Temp
°C
Dew
Point
°C
Rel
Hum
%
Delta-T
°C
Wind Press
QNH
hPa
Press
MSL
hPa
Rain since
9am
mm
Dir  Spd
km/h
Gust
km/h
Spd
kts
Gust
kts
16/11:30pm 29.4 33.4 25.6 80 2.7 W 15 22 8 12 1006.8 - 0.0
16/11:00pm 30.0 32.9 26.0 79 2.8 W 22 28 12 15 1006.9 - 0.0
16/10:30pm 30.0 32.5 26.0 79 2.8 W 24 30 13 16 1007.3 - 0.0
16/10:00pm 30.2 32.4 25.5 76 3.3 W 24 32 13 17 1007.2 - 0.0
16/09:30pm 30.3 32.4 25.4 75 3.5 W 24 30 13 16 1007.1 - 0.0
16/09:00pm 30.4 33.3 25.9 77 3.2 W 22 30 12 16 1006.6 1006.6 0.0
16/08:30pm 30.7 32.4 25.3 73 3.8 W 26 32 14 17 1006.1 - 0.0
16/08:00pm 31.0 32.5 24.9 70 4.3 W 26 32 14 17 1005.4 - 0.0
16/07:30pm 31.3 32.7 25.4 71 4.2 W 28 35 15 19 1004.9 - 0.0
16/07:00pm 31.6 33.2 25.7 71 4.2 WNW 28 33 15 18 1004.8 - 0.0
16/06:30pm 32.5 33.5 24.8 64 5.4 WNW 28 37 15 20 1004.5 - 0.0
16/06:00pm 33.1 34.2 25.6 64 5.4 WNW 30 37 16 20 1004.5 1004.5 0.0
16/05:30pm 33.4 34.0 25.4 63 5.7 WNW 32 39 17 21 1004.3 - 0.0
16/05:00pm 33.7 33.2 25.1 60 6.1 WNW 37 44 20 24 1004.2 - 0.0
16/04:30pm 34.5 34.9 25.9 61 6.2 NW 35 46 19 25 1004.2 - 0.0
16/04:00pm 34.0 34.4 25.9 62 5.8 NW 35 44 19 24 1004.3 - 0.0
16/03:30pm 34.7 35.6 26.1 61 6.2 NW 33 41 18 22 1004.4 - 0.0
16/03:00pm 35.2 36.5 26.5 60 6.3 NW 32 41 17 22 1004.7 1004.7 0.0
16/02:30pm 34.6 35.6 26.0 61 6.2 NW 32 39 17 21 1005.2 - 0.0
16/02:00pm 35.3 36.6 25.8 58 6.8 NW 30 37 16 20 1005.6 - 0.0
16/01:30pm 35.8 37.5 25.9 56 7.1 NW 28 35 15 19 1005.8 - 0.0
16/01:00pm 35.6 38.3 26.3 58 6.7 NW 24 32 13 17 1006.1 - 0.0
16/12:30pm 35.0 37.4 25.8 59 6.6 NW 24 32 13 17 1006.4 - 0.0
16/12:00pm 35.7 38.3 26.1 57 6.9 NW 24 35 13 19 1006.8 1006.8 0.0
16/11:30am 34.3 37.0 26.2 62 5.8 WNW 24 32 13 17 1007.0 - 0.0
16/11:00am 33.8 36.4 25.5 62 5.9 WNW 22 28 12 15 1007.2 - 0.0
16/10:30am 33.1 35.8 25.1 63 5.7 WNW 20 28 11 15 1007.3 - 0.0
16/10:00am 32.8 35.7 25.9 67 4.9 W 22 30 12 16 1007.3 - 0.0
16/09:30am 31.5 34.5 25.6 71 4.2 W 20 26 11 14 1007.4 - 0.0
16/09:00am 32.0 34.7 24.8 65 5.1 WSW 19 28 10 15 1007.6 1007.6 0.0
16/08:30am 31.4 34.2 25.0 69 4.5 SW 19 24 10 13 1007.9 - 0.0
16/08:00am 30.6 34.0 25.9 76 3.3 SW 19 22 10 12 1008.0 - 0.0
16/07:30am 29.3 34.9 26.3 84 2.1 SW 9 13 5 7 1007.9 - 0.0
16/07:00am 27.2 33.0 26.0 93 0.8 SW 7 9 4 5 1007.3 - 0.0
16/06:30am 25.7 30.8 25.0 96 0.5 SW 7 7 4 4 1006.8 - 0.0
16/06:00am 25.8 30.9 24.9 95 0.6 SW 7 11 4 6 1006.5 1006.5 0.0
16/05:30am 25.9 31.5 24.9 94 0.7 SW 4 7 2 4 1005.9 - 0.0
16/05:00am 26.3 31.1 25.1 93 0.8 SW 9 13 5 7 1005.6 - 0.0
16/04:30am 27.0 31.1 25.2 90 1.3 SW 13 15 7 8 1005.6 - 0.0
16/04:00am 26.8 32.1 25.8 94 0.7 SW 9 11 5 6 1004.9 - 0.0
16/03:30am 26.5 31.3 25.1 92 1.0 SW 9 11 5 6 1004.9 - 0.0
16/03:00am 27.1 31.8 25.5 91 1.1 SW 11 13 6 7 1005.2 1005.2 0.0
16/02:30am 26.7 30.9 25.3 92 1.0 WSW 13 15 7 8 1005.2 - 0.0
16/02:00am 26.8 30.9 25.2 91 1.1 WSW 13 15 7 8 1005.4 - 0.0
16/01:30am 27.4 31.9 25.2 88 1.5 WSW 11 13 6 7 1005.0 - 0.0
16/01:00am 28.2 32.4 25.4 85 2.0 WSW 13 17 7 9 1005.9 - 0.0
16/12:30am 28.4 32.5 25.2 83 2.2 WSW 13 17 7 9 1006.1 - 0.0
16/12:00am 29.1 32.1 25.3 80 2.7 WSW 19 24 10 13 1006.6 1006.6 0.0
 
Date/Time
CST
Temp
°C
App
Temp
°C
Dew
Point
°C
Rel
Hum
%
Delta-T
°C
Wind Press
QNH
hPa
Press
MSL
hPa
Rain since
9am
mm
Dir  Spd
km/h
Gust
km/h
Spd
kts
Gust
kts
15/11:30pm 29.3 32.7 25.3 79 2.8 W 17 22 9 12 1006.3 - 0.0
15/11:00pm 30.1 31.6 25.6 77 3.2 W 28 35 15 19 1005.9 - 0.0
15/10:30pm 30.1 32.4 25.6 77 3.2 W 24 32 13 17 1005.5 - 0.0
15/10:00pm 30.2 32.0 25.5 76 3.3 W 26 35 14 19 1005.4 - 0.0
15/09:30pm 30.4 31.4 24.8 72 3.9 W 28 39 15 21 1005.3 - 0.0
15/09:00pm 30.6 32.6 25.7 75 3.5 W 26 35 14 19 1005.2 1005.2 0.0
15/08:30pm 30.6 33.6 26.1 77 3.2 W 22 32 12 17 1004.7 - 0.0
15/08:00pm 31.1 34.1 26.1 75 3.6 W 22 30 12 16 1004.2 - 0.0
15/07:30pm 31.5 34.6 26.3 74 3.7 W 22 30 12 16 1003.9 - 0.0
15/07:00pm 31.4 34.4 27.3 79 3.0 W 26 33 14 18 1003.3 - 0.0
15/06:30pm 32.0 34.1 27.0 75 3.6 W 30 39 16 21 1002.9 - 0.0
15/06:00pm 32.5 34.3 26.6 71 4.3 W 30 39 16 21 1003.1 1003.1 0.0
15/05:30pm 33.2 34.7 26.7 68 4.7 WNW 32 41 17 22 1002.8 - 0.0
15/05:00pm 33.4 34.4 26.2 66 5.2 WNW 33 43 18 23 1003.2 - 0.0
15/04:30pm 33.2 34.2 26.2 66 5.0 WNW 33 44 18 24 1002.8 - 0.0
15/04:00pm 34.0 34.4 25.9 62 5.8 NW 35 44 19 24 1003.0 - 0.0
15/03:30pm 35.4 36.3 26.1 58 6.7 WNW 33 43 18 23 1003.1 - 0.0
15/03:00pm 35.1 36.0 26.7 61 6.1 WNW 35 43 19 23 1003.2 1003.2 0.0
15/02:30pm 35.4 35.9 26.1 58 6.7 WNW 35 44 19 24 1003.5 - 0.0
15/02:00pm 35.7 36.6 26.7 59 6.5 NW 35 41 19 22 1004.0 - 0.0
15/01:30pm 35.9 37.5 26.9 59 6.5 NW 32 39 17 21 1004.4 - 0.0
15/01:00pm 35.9 38.5 27.2 61 6.3 NW 28 35 15 19 1005.0 - 0.0
15/12:30pm 35.0 37.6 26.6 61 6.1 NW 26 35 14 19 1005.4 - 0.0
15/12:00pm 35.6 39.9 27.5 63 5.9 NW 20 28 11 15 1005.8 1005.8 0.0
15/11:30am 34.5 38.0 26.9 64 5.5 WNW 22 30 12 16 1006.1 - 0.0
15/11:00am 33.6 37.2 26.1 65 5.4 WNW 19 28 10 15 1006.6 - 0.0
15/10:30am 33.2 36.5 26.0 66 5.2 W 20 30 11 16 1006.9 - 0.0
15/10:00am 32.7 35.2 26.0 68 4.8 W 24 32 13 17 1007.1 - 0.0
15/09:30am 31.5 35.1 26.1 73 3.9 W 19 26 10 14 1006.9 - 0.0
15/09:00am 31.2 35.6 26.2 75 3.6 WSW 15 20 8 11 1006.8 1006.8 0.0
15/08:30am 30.1 35.8 26.5 81 2.6 WSW 9 15 5 8 1007.0 - 0.0
15/08:00am 29.4 34.8 26.0 82 2.4 WSW 9 13 5 7 1006.7 - 0.0
15/07:30am 28.7 34.7 26.3 87 1.7 WSW 7 9 4 5 1006.1 - 0.0
15/07:00am 27.5 33.5 26.4 94 0.8 WSW 7 9 4 5 1005.9 - 0.0
15/06:30am 26.5 32.7 25.8 96 0.5 WSW 4 6 2 3 1005.7 - 0.0
15/06:00am 26.4 32.2 25.7 96 0.5 WSW 6 7 3 4 1005.0 1005.0 0.0
15/05:30am 26.3 31.4 25.6 96 0.5 WSW 9 11 5 6 1004.4 - 0.0
15/05:00am 26.3 31.8 25.6 96 0.5 WSW 7 9 4 5 1004.4 - 0.0
15/04:30am 26.4 31.8 25.5 95 0.6 WSW 7 9 4 5 1004.2 - 0.0
15/04:00am 26.6 32.0 25.4 93 0.8 WSW 7 9 4 5 1004.3 - 0.0
15/03:30am 27.2 31.6 25.6 91 1.1 W 13 15 7 8 1004.4 - 0.0
15/03:00am 27.7 31.9 25.9 90 1.3 W 15 17 8 9 1004.4 1004.4 0.0
15/02:30am 27.7 32.3 25.9 90 1.3 WSW 13 15 7 8 1004.6 - 0.0
15/02:00am 27.7 32.1 25.7 89 1.4 WSW 13 15 7 8 1004.6 - 0.0
15/01:30am 28.2 31.8 25.6 86 1.8 WSW 17 22 9 12 1004.7 - 0.0
15/01:00am 28.9 32.3 25.9 84 2.1 W 19 28 10 15 1004.8 - 0.0
15/12:30am 29.4 31.4 25.8 81 2.6 W 26 33 14 18 1004.8 - 0.0
15/12:00am 29.4 32.3 26.0 82 2.4 W 22 30 12 16 1005.2 1005.2 0.0
 
Date/Time
CST
Temp
°C
App
Temp
°C
Dew
Point
°C
Rel
Hum
%
Delta-T
°C
Wind Press
QNH
hPa
Press
MSL
hPa
Rain since
9am
mm
Dir  Spd
km/h
Gust
km/h
Spd
kts
Gust
kts
14/11:30pm 29.7 31.9 26.1 81 2.6 W 26 35 14 19 1005.2 - 0.0
14/11:00pm 29.7 32.8 26.3 82 2.4 W 22 26 12 14 1005.4 - 0.0
14/10:30pm 29.7 33.3 26.1 81 2.6 W 19 22 10 12 1005.6 - 0.0
14/10:00pm 30.0 33.3 26.0 79 2.8 W 20 30 11 16 1005.5 - 0.0
14/09:30pm 30.0 33.3 26.0 79 2.8 W 20 26 11 14 1005.3 - 0.0
14/09:00pm 29.9 33.3 25.9 79 2.8 W 19 26 10 14 1005.1 1005.1 0.0
14/08:30pm 30.1 33.6 26.0 78 2.9 W 19 28 10 15 1004.5 - 0.0
14/08:00pm 30.4 33.1 26.3 79 2.9 W 24 30 13 16 1004.1 - 0.0

Other Formats:

Comma delimited format used in spreadsheet applications
http://www.bom.gov.au/fwo/IDD60801/IDD60801.94127.axf

JavaScript Object Notation format (JSON) in row-major order
http://www.bom.gov.au/fwo/IDD60801/IDD60801.94127.json